createdAt,value
2018-06-02T00:00:05.243Z,18.74
2018-06-02T00:02:33.515Z,18.51
2018-06-02T00:05:01.786Z,18.68
2018-06-02T00:07:30.072Z,18.68
2018-06-02T00:09:58.322Z,18.81
2018-06-02T00:12:26.599Z,18.77
2018-06-02T00:14:54.958Z,18.92
2018-06-02T00:17:23.313Z,18.68
2018-06-02T00:19:51.660Z,18.81
2018-06-02T00:22:20.031Z,18.85
2018-06-02T00:24:49.103Z,19.03
2018-06-02T00:27:17.435Z,18.96
2018-06-02T00:29:46.485Z,18.94
2018-06-02T00:32:14.741Z,18.89
2018-06-02T00:34:42.996Z,19.01
2018-06-02T00:37:11.337Z,19.08
2018-06-02T00:39:39.664Z,19.20
2018-06-02T00:42:07.931Z,19.24
2018-06-02T00:44:36.317Z,19.04
2018-06-02T00:47:04.639Z,19.00
2018-06-02T00:49:32.895Z,18.99
2018-06-02T00:52:01.174Z,18.94
2018-06-02T00:54:47.065Z,19.02
2018-06-02T00:57:15.331Z,18.85
2018-06-02T00:59:43.591Z,18.64
2018-06-02T01:02:11.866Z,18.81
2018-06-02T01:04:40.173Z,18.68
2018-06-02T01:07:08.450Z,18.71
2018-06-02T01:09:36.726Z,18.69
2018-06-02T01:12:05.076Z,18.42
2018-06-02T01:14:35.329Z,18.47
2018-06-02T01:17:03.584Z,18.60
2018-06-02T01:19:31.849Z,18.56
2018-06-02T01:22:00.128Z,18.64
2018-06-02T01:24:28.570Z,18.82
2018-06-02T01:26:57.621Z,18.81
2018-06-02T01:29:25.888Z,18.98
2018-06-02T01:31:54.151Z,18.89
2018-06-02T01:34:22.409Z,19.05
2018-06-02T01:36:50.719Z,19.01
2018-06-02T01:39:19.066Z,19.01
2018-06-02T01:41:48.097Z,19.00
2018-06-02T01:44:16.431Z,19.12
2018-06-02T01:46:44.720Z,19.18
2018-06-02T01:49:13.001Z,19.16
2018-06-02T01:51:41.261Z,19.14
2018-06-02T01:54:10.281Z,19.09
2018-06-02T01:56:38.555Z,19.20
2018-06-02T01:59:06.849Z,19.05
2018-06-02T02:01:35.110Z,19.02
2018-06-02T02:04:03.396Z,19.06
2018-06-02T02:06:31.657Z,18.58
2018-06-02T02:08:59.918Z,18.58
2018-06-02T02:11:28.970Z,18.45
2018-06-02T02:13:57.225Z,18.41
2018-06-02T02:16:25.497Z,18.38
2018-06-02T02:18:53.772Z,18.40
2018-06-02T02:21:22.033Z,18.17
2018-06-02T02:23:50.307Z,18.13
2018-06-02T02:26:18.576Z,18.12
2018-06-02T02:28:46.832Z,18.11
2018-06-02T02:31:15.901Z,17.92
2018-06-02T02:33:44.181Z,17.97
2018-06-02T02:36:12.441Z,18.05
2018-06-02T02:38:40.688Z,17.94
2018-06-02T02:41:08.969Z,17.87
2018-06-02T02:43:37.262Z,17.90
2018-06-02T02:46:05.543Z,17.94
2018-06-02T02:48:33.833Z,18.04
2018-06-02T02:51:02.090Z,18.06
2018-06-02T02:53:30.379Z,18.05
2018-06-02T02:55:58.648Z,18.01
2018-06-02T02:58:26.928Z,18.07
2018-06-02T03:00:55.192Z,18.12
2018-06-02T03:03:23.489Z,18.20
2018-06-02T03:05:51.757Z,18.30
2018-06-02T03:08:20.013Z,18.18
2018-06-02T03:10:48.296Z,18.16
2018-06-02T03:13:16.556Z,18.22
2018-06-02T03:15:44.812Z,18.32
2018-06-02T03:18:13.114Z,18.45
2018-06-02T03:20:41.361Z,18.46
2018-06-02T03:23:10.400Z,18.59
2018-06-02T03:25:38.677Z,18.67
2018-06-02T03:28:06.941Z,18.72
2018-06-02T03:30:35.210Z,18.77
2018-06-02T03:33:03.492Z,18.74
2018-06-02T03:35:31.742Z,18.68
2018-06-02T03:38:00.018Z,18.68
2018-06-02T03:40:29.033Z,18.59
2018-06-02T03:42:57.324Z,18.62
2018-06-02T03:45:25.657Z,18.69
2018-06-02T03:47:54.003Z,18.77
2018-06-02T03:50:22.334Z,18.82
2018-06-02T03:52:50.617Z,18.78
2018-06-02T03:55:18.872Z,18.72
2018-06-02T03:57:47.126Z,18.79
2018-06-02T04:00:15.390Z,18.30
2018-06-02T04:02:43.647Z,18.02
2018-06-02T04:05:11.892Z,18.22
2018-06-02T04:07:40.181Z,18.42
2018-06-02T04:10:08.441Z,18.38
2018-06-02T04:12:36.683Z,18.36
2018-06-02T04:15:04.953Z,18.44
2018-06-02T04:17:33.987Z,18.47
2018-06-02T04:20:02.273Z,18.45
2018-06-02T04:22:30.542Z,18.51
2018-06-02T04:24:58.795Z,18.62
2018-06-02T04:27:27.830Z,18.58
2018-06-02T04:29:56.087Z,18.51
2018-06-02T04:32:24.913Z,18.57
2018-06-02T04:34:53.171Z,18.61
2018-06-02T04:37:21.440Z,18.75
2018-06-02T04:39:49.705Z,18.89
2018-06-02T04:42:17.972Z,18.87
2018-06-02T04:44:46.248Z,18.85
2018-06-02T04:47:14.503Z,18.82
2018-06-02T04:49:43.512Z,18.86
2018-06-02T04:52:12.568Z,18.73
2018-06-02T04:54:40.830Z,18.79
2018-06-02T04:57:09.101Z,18.63
2018-06-02T04:59:37.369Z,18.25
2018-06-02T05:02:05.636Z,18.39
2018-06-02T05:04:33.935Z,18.26
2018-06-02T05:07:02.226Z,18.01
2018-06-02T05:09:30.480Z,17.95
2018-06-02T05:11:59.506Z,17.79
2018-06-02T05:14:27.781Z,17.83
2018-06-02T05:16:56.037Z,17.87
2018-06-02T05:19:24.390Z,17.95
2018-06-02T05:21:52.660Z,18.08
2018-06-02T05:24:20.912Z,17.99
2018-06-02T05:26:49.951Z,18.07
2018-06-02T05:29:18.230Z,18.17
2018-06-02T05:31:46.585Z,18.10
2018-06-02T05:34:14.849Z,18.18
2018-06-02T05:36:43.124Z,18.21
2018-06-02T05:39:11.575Z,18.10
2018-06-02T05:41:39.865Z,17.95
2018-06-02T05:44:08.908Z,18.03
2018-06-02T05:46:37.158Z,18.12
2018-06-02T05:49:05.417Z,18.25
2018-06-02T05:51:33.696Z,18.12
2018-06-02T05:54:01.958Z,18.12
2018-06-02T05:56:30.986Z,18.33
2018-06-02T05:58:59.256Z,18.43
2018-06-02T06:01:27.544Z,18.61
2018-06-02T06:03:55.797Z,18.75
2018-06-02T06:06:24.079Z,18.74
2018-06-02T06:08:52.324Z,18.70
2018-06-02T06:11:21.428Z,18.85
2018-06-02T06:13:49.763Z,18.97
2018-06-02T06:16:18.027Z,18.93
2018-06-02T06:18:46.281Z,19.05
2018-06-02T06:21:14.565Z,19.13
2018-06-02T06:23:42.858Z,19.39
2018-06-02T06:26:11.173Z,19.62
2018-06-02T06:28:39.441Z,19.53
2018-06-02T06:31:07.697Z,19.50
2018-06-02T06:33:35.969Z,19.30
2018-06-02T06:36:04.257Z,19.36
2018-06-02T06:38:32.508Z,19.29
2018-06-02T06:41:00.786Z,19.38
2018-06-02T06:43:29.057Z,19.37
2018-06-02T06:45:57.383Z,19.52
2018-06-02T06:48:25.632Z,19.10
2018-06-02T06:50:53.954Z,19.06
2018-06-02T06:53:22.969Z,18.95
2018-06-02T06:55:51.226Z,19.10
2018-06-02T06:58:20.321Z,18.94
2018-06-02T07:00:49.338Z,19.12
2018-06-02T07:03:17.633Z,19.00
2018-06-02T07:05:45.917Z,19.25
2018-06-02T07:08:14.170Z,19.11
2018-06-02T07:10:42.492Z,19.01
2018-06-02T07:13:10.776Z,18.84
2018-06-02T07:15:39.061Z,19.08
2018-06-02T07:18:07.289Z,19.28
2018-06-02T07:20:35.561Z,19.17
2018-06-02T07:23:03.832Z,19.30
2018-06-02T07:25:32.108Z,19.45
2018-06-02T07:28:00.388Z,19.81
2018-06-02T07:30:28.644Z,19.61
2018-06-02T07:32:56.937Z,19.86
2018-06-02T07:35:25.319Z,19.90
2018-06-02T07:37:53.562Z,19.80
2018-06-02T07:40:22.594Z,20.07
2018-06-02T07:42:50.876Z,19.92
2018-06-02T07:45:19.137Z,19.97
2018-06-02T07:47:47.405Z,20.09
2018-06-02T07:50:15.673Z,20.33
2018-06-02T07:52:43.935Z,20.41
2018-06-02T07:55:12.949Z,20.56
2018-06-02T07:57:41.237Z,20.61
2018-06-02T08:00:09.468Z,20.43
2018-06-02T08:02:37.740Z,20.70
2018-06-02T08:05:06.030Z,20.62
2018-06-02T08:07:34.293Z,20.75
2018-06-02T08:10:02.572Z,20.82
2018-06-02T08:12:30.833Z,20.46
2018-06-02T08:14:59.128Z,20.60
2018-06-02T08:17:27.398Z,21.04
2018-06-02T08:19:55.665Z,20.93
2018-06-02T08:22:23.920Z,21.03
2018-06-02T08:24:52.189Z,21.09
2018-06-02T08:27:20.469Z,21.38
2018-06-02T08:29:48.735Z,21.04
2018-06-02T08:32:17.009Z,20.93
2018-06-02T08:34:45.285Z,20.73
2018-06-02T08:37:13.542Z,20.99
2018-06-02T08:39:41.804Z,21.07
2018-06-02T08:42:10.841Z,21.02
2018-06-02T08:44:39.108Z,21.13
2018-06-02T08:47:07.367Z,20.75
2018-06-02T08:49:35.678Z,21.08
2018-06-02T08:52:03.960Z,20.68
2018-06-02T08:54:32.237Z,20.60
2018-06-02T08:57:00.512Z,20.68
2018-06-02T08:59:28.788Z,20.62
2018-06-02T09:01:57.053Z,20.82
2018-06-02T09:04:25.330Z,20.87
2018-06-02T09:06:53.581Z,20.83
2018-06-02T09:09:21.842Z,21.02
2018-06-02T09:11:50.882Z,20.84
2018-06-02T09:14:19.157Z,20.82
2018-06-02T09:16:47.528Z,20.57
2018-06-02T09:19:15.805Z,20.71
2018-06-02T09:21:44.074Z,20.53
2018-06-02T09:24:12.369Z,20.53
2018-06-02T09:26:40.637Z,20.38
2018-06-02T09:29:08.897Z,20.30
2018-06-02T09:31:37.153Z,20.44
2018-06-02T09:34:05.498Z,20.38
2018-06-02T09:36:34.614Z,20.31
2018-06-02T09:39:03.694Z,20.44
2018-06-02T09:41:32.803Z,20.53
2018-06-02T09:44:01.120Z,20.69
2018-06-02T09:46:29.384Z,20.64
2018-06-02T09:48:57.641Z,20.76
2018-06-02T09:51:26.689Z,20.70
2018-06-02T09:53:54.936Z,20.69
2018-06-02T09:56:23.233Z,20.79
2018-06-02T09:58:51.469Z,21.05
2018-06-02T10:01:19.744Z,20.99
2018-06-02T10:03:48.797Z,20.99
2018-06-02T10:06:17.053Z,20.58
2018-06-02T10:08:45.305Z,20.48
2018-06-02T10:11:13.570Z,20.66
2018-06-02T10:13:41.839Z,20.84
2018-06-02T10:16:10.864Z,20.70
2018-06-02T10:18:39.137Z,20.97
2018-06-02T10:21:07.387Z,21.26
2018-06-02T10:23:36.506Z,21.28
2018-06-02T10:26:04.773Z,21.00
2018-06-02T10:28:33.024Z,20.86
2018-06-02T10:31:02.036Z,20.61
2018-06-02T10:33:30.369Z,20.59
2018-06-02T10:35:58.644Z,20.49
2018-06-02T10:38:26.946Z,20.79
2018-06-02T10:40:55.236Z,20.85
2018-06-02T10:43:24.259Z,21.14
2018-06-02T10:45:52.511Z,21.13
2018-06-02T10:48:20.778Z,21.32
2018-06-02T10:50:49.850Z,21.21
2018-06-02T10:53:18.112Z,20.71
2018-06-02T10:55:46.386Z,21.38
2018-06-02T10:58:14.662Z,21.93
2018-06-02T11:00:43.020Z,21.86
2018-06-02T11:03:11.307Z,22.15
2018-06-02T11:05:39.648Z,22.59
2018-06-02T11:08:07.901Z,22.65
2018-06-02T11:10:37.024Z,22.87
2018-06-02T11:13:05.325Z,23.26
2018-06-02T11:15:33.589Z,23.10
2018-06-02T11:18:02.270Z,22.27
2018-06-02T11:20:30.555Z,22.58
2018-06-02T11:22:58.837Z,22.44
2018-06-02T11:25:27.202Z,22.88
2018-06-02T11:27:55.468Z,23.42
2018-06-02T11:30:23.752Z,24.15
2018-06-02T11:32:52.013Z,24.54
2018-06-02T11:35:20.285Z,25.05
2018-06-02T11:37:49.402Z,25.57
2018-06-02T11:40:17.752Z,25.67
2018-06-02T11:42:46.796Z,25.92
2018-06-02T11:45:15.959Z,26.09
2018-06-02T11:47:44.249Z,26.13
2018-06-02T11:50:12.514Z,26.09
2018-06-02T11:52:40.798Z,26.04
2018-06-02T11:55:09.061Z,25.67
2018-06-02T11:57:37.346Z,25.01
2018-06-02T12:00:05.613Z,24.85
2018-06-02T12:02:33.888Z,24.11
2018-06-02T12:05:02.158Z,23.31
2018-06-02T12:07:30.430Z,22.66
2018-06-02T12:09:59.462Z,22.29
2018-06-02T12:12:27.741Z,22.77
2018-06-02T12:14:55.993Z,23.07
2018-06-02T12:17:24.266Z,23.21
2018-06-02T12:19:52.533Z,23.28
2018-06-02T12:22:21.570Z,23.38
2018-06-02T12:24:49.833Z,23.51
2018-06-02T12:27:18.108Z,23.46
2018-06-02T12:29:46.368Z,23.34
2018-06-02T12:32:14.648Z,23.40
2018-06-02T12:34:42.908Z,23.92
2018-06-02T12:37:12.017Z,24.39
2018-06-02T12:39:40.281Z,24.90
2018-06-02T12:42:09.302Z,24.73
2018-06-02T12:44:37.557Z,24.55
2018-06-02T12:47:05.824Z,24.54
2018-06-02T12:49:34.943Z,24.96
2018-06-02T12:52:03.196Z,25.26
2018-06-02T12:54:32.390Z,25.15
2018-06-02T12:57:01.500Z,25.53
2018-06-02T12:59:29.788Z,24.88
2018-06-02T13:01:58.049Z,25.11
2018-06-02T13:04:26.317Z,25.22
2018-06-02T13:06:54.575Z,25.12
2018-06-02T13:09:22.893Z,25.39
2018-06-02T13:11:51.161Z,25.63
2018-06-02T13:14:19.471Z,25.73
2018-06-02T13:16:47.757Z,25.95
2018-06-02T13:19:16.088Z,25.22
2018-06-02T13:21:44.347Z,25.34
2018-06-02T13:24:13.376Z,25.62
2018-06-02T13:26:41.634Z,25.60
2018-06-02T13:29:09.888Z,25.71
2018-06-02T13:31:38.917Z,25.69
2018-06-02T13:34:07.164Z,25.59
2018-06-02T13:36:36.282Z,25.74
2018-06-02T13:39:04.562Z,25.74
2018-06-02T13:41:32.957Z,25.60
2018-06-02T13:44:01.197Z,26.11
2018-06-02T13:46:30.329Z,26.39
2018-06-02T13:48:58.585Z,26.32
2018-06-02T13:51:26.900Z,25.87
2018-06-02T13:53:55.879Z,25.88
2018-06-02T13:56:24.120Z,25.94
2018-06-02T13:58:53.150Z,25.61
2018-06-02T14:01:21.413Z,25.66
2018-06-02T14:03:49.671Z,25.57
2018-06-02T14:06:17.928Z,25.60
2018-06-02T14:08:46.217Z,25.15
2018-06-02T14:11:15.272Z,24.80
2018-06-02T14:13:43.586Z,24.54
2018-06-02T14:16:12.680Z,24.40
2018-06-02T14:18:41.076Z,24.32
2018-06-02T14:21:09.398Z,24.75
2018-06-02T14:23:37.681Z,25.30
2018-06-02T14:26:05.941Z,25.63
2018-06-02T14:28:34.217Z,27.94
2018-06-02T14:31:02.493Z,28.82
2018-06-02T14:33:30.771Z,30.09
2018-06-02T14:35:59.021Z,30.27
2018-06-02T14:38:27.289Z,30.95
2018-06-02T14:40:55.562Z,32.40
2018-06-02T14:43:23.813Z,32.82
2018-06-02T14:45:52.868Z,33.34
2018-06-02T14:48:21.136Z,32.52
2018-06-02T14:50:49.414Z,30.80
2018-06-02T14:53:17.690Z,30.07
2018-06-02T14:55:45.954Z,29.70
2018-06-02T14:58:14.209Z,29.25
2018-06-02T15:00:42.477Z,28.45
2018-06-02T15:03:11.501Z,26.94
2018-06-02T15:05:39.775Z,25.49
2018-06-02T15:08:08.068Z,25.53
2018-06-02T15:10:36.329Z,25.32
2018-06-02T15:13:04.580Z,25.90
2018-06-02T15:15:32.943Z,26.52
2018-06-02T15:18:01.970Z,29.00
2018-06-02T15:20:30.241Z,30.46
2018-06-02T15:22:58.491Z,31.62
2018-06-02T15:25:27.519Z,32.31
2018-06-02T15:27:55.792Z,32.69
2018-06-02T15:30:24.056Z,31.47
2018-06-02T15:32:52.368Z,30.87
2018-06-02T15:35:20.836Z,29.57
2018-06-02T15:37:49.150Z,28.23
2018-06-02T15:40:18.311Z,27.94
2018-06-02T15:42:46.635Z,27.38
2018-06-02T15:45:15.726Z,26.87
2018-06-02T15:47:44.820Z,26.37
2018-06-02T15:50:13.930Z,26.26
2018-06-02T15:52:43.030Z,25.97
2018-06-02T15:55:12.121Z,25.69
2018-06-02T15:57:41.231Z,25.70
2018-06-02T16:00:10.319Z,25.46
2018-06-02T16:02:38.680Z,25.60
2018-06-02T16:05:07.792Z,25.33
2018-06-02T16:07:36.167Z,24.82
2018-06-02T16:10:05.262Z,24.16
2018-06-02T16:12:34.312Z,24.25
2018-06-02T16:15:02.573Z,24.10
2018-06-02T16:17:30.822Z,24.26
2018-06-02T16:19:59.856Z,24.24
2018-06-02T16:22:28.936Z,23.63
2018-06-02T16:24:57.204Z,23.94
2018-06-02T16:27:25.479Z,24.23
2018-06-02T16:29:53.724Z,24.34
2018-06-02T16:32:22.784Z,24.37
2018-06-02T16:34:51.065Z,24.32
2018-06-02T16:37:19.334Z,24.50
2018-06-02T16:39:48.352Z,24.59
2018-06-02T16:42:16.622Z,24.10
2018-06-02T16:44:44.897Z,23.78
2018-06-02T16:47:13.196Z,23.70
2018-06-02T16:49:41.465Z,23.76
2018-06-02T16:52:10.481Z,23.97
2018-06-02T16:54:38.732Z,23.94
2018-06-02T16:57:07.009Z,23.92
2018-06-02T16:59:35.267Z,24.00
2018-06-02T17:02:03.560Z,24.44
2018-06-02T17:04:31.816Z,25.78
2018-06-02T17:07:00.069Z,27.20
2018-06-02T17:09:28.363Z,28.16
2018-06-02T17:11:56.626Z,28.12
2018-06-02T17:14:24.898Z,27.17
2018-06-02T17:16:53.148Z,26.51
2018-06-02T17:19:21.494Z,25.84
2018-06-02T17:21:49.745Z,25.21
2018-06-02T17:24:18.016Z,25.28
2018-06-02T17:26:46.419Z,25.36
2018-06-02T17:29:14.908Z,25.34
2018-06-02T17:31:43.183Z,25.13
2018-06-02T17:34:11.477Z,26.14
2018-06-02T17:36:40.516Z,26.19
2018-06-02T17:39:08.775Z,26.31
2018-06-02T17:41:37.040Z,27.45
2018-06-02T17:44:05.296Z,28.12
2018-06-02T17:46:34.319Z,28.36
2018-06-02T17:49:02.585Z,28.38
2018-06-02T17:51:30.873Z,27.08
2018-06-02T17:53:59.943Z,27.46
2018-06-02T17:56:29.053Z,26.78
2018-06-02T17:58:57.366Z,26.95
2018-06-02T18:01:25.800Z,26.57
2018-06-02T18:03:54.100Z,26.14
2018-06-02T18:06:22.348Z,25.75
2018-06-02T18:08:51.375Z,25.74
2018-06-02T18:11:19.718Z,25.01
2018-06-02T18:13:48.747Z,25.24
2018-06-02T18:16:17.007Z,24.96
2018-06-02T18:18:45.290Z,24.74
2018-06-02T18:21:13.542Z,24.75
2018-06-02T18:23:42.572Z,24.52
2018-06-02T18:26:10.845Z,24.51
2018-06-02T18:28:39.170Z,24.50
2018-06-02T18:31:07.488Z,24.48
2018-06-02T18:33:35.766Z,24.37
2018-06-02T18:36:04.027Z,24.23
2018-06-02T18:38:33.054Z,24.03
2018-06-02T18:41:01.369Z,23.81
2018-06-02T18:43:29.684Z,23.11
2018-06-02T18:45:58.076Z,23.24
2018-06-02T18:48:26.451Z,23.18
2018-06-02T18:50:54.778Z,23.05
2018-06-02T18:53:23.821Z,23.09
2018-06-02T18:55:52.101Z,22.92
2018-06-02T18:58:20.437Z,22.88
2018-06-02T19:00:48.699Z,22.65
2018-06-02T19:03:16.980Z,22.67
2018-06-02T19:05:45.234Z,22.58
2018-06-02T19:08:13.500Z,22.51
2018-06-02T19:10:41.757Z,22.43
2018-06-02T19:13:10.071Z,22.31
2018-06-02T19:15:39.171Z,22.20
2018-06-02T19:18:07.526Z,22.09
2018-06-02T19:20:35.925Z,22.01
2018-06-02T19:23:04.314Z,21.95
2018-06-02T19:26:02.533Z,21.46
2018-06-02T19:28:32.138Z,21.35
2018-06-02T19:31:01.690Z,21.30
2018-06-02T19:33:31.326Z,21.30
2018-06-02T19:36:00.972Z,21.26
2018-06-02T19:38:30.597Z,21.17
2018-06-02T19:41:00.250Z,21.11
2018-06-02T19:43:30.079Z,21.07
2018-06-02T19:45:59.990Z,21.02
2018-06-02T19:48:29.681Z,20.94
2018-06-02T19:50:59.447Z,20.92
2018-06-02T19:53:28.965Z,20.99
2018-06-02T19:55:59.022Z,20.88
2018-06-02T19:58:28.685Z,20.68
2018-06-02T20:00:58.465Z,20.68
2018-06-02T20:03:28.116Z,20.63
2018-06-02T20:05:57.728Z,20.54
2018-06-02T20:08:27.221Z,20.56
2018-06-02T20:10:56.804Z,20.52
2018-06-02T20:13:26.445Z,20.40
2018-06-02T20:15:56.691Z,20.38
2018-06-02T20:18:26.654Z,20.29
2018-06-02T20:20:56.066Z,20.23
2018-06-02T20:23:25.639Z,20.17
2018-06-02T20:25:55.453Z,20.08
2018-06-02T20:28:25.592Z,19.98
2018-06-02T20:30:55.735Z,19.98
2018-06-02T20:33:25.580Z,19.89
2018-06-02T20:35:55.571Z,19.91
2018-06-02T20:38:25.216Z,19.78
2018-06-02T20:40:55.624Z,19.73
2018-06-02T20:43:25.173Z,19.44
2018-06-02T20:45:55.238Z,19.28
2018-06-02T20:48:25.709Z,19.20
2018-06-02T20:50:55.604Z,19.07
2018-06-02T20:53:25.776Z,19.05
2018-06-02T20:55:55.795Z,18.98
2018-06-02T20:58:26.240Z,19.06
2018-06-02T21:00:56.399Z,19.13
2018-06-02T21:03:26.260Z,19.11
2018-06-02T21:05:55.893Z,18.99
2018-06-02T21:08:25.529Z,18.86
2018-06-02T21:10:56.079Z,18.81
2018-06-02T21:13:26.128Z,18.70
2018-06-02T21:15:56.819Z,18.72
2018-06-02T21:18:26.282Z,18.52
2018-06-02T21:20:58.234Z,18.57
2018-06-02T21:23:28.159Z,18.57
2018-06-02T21:25:57.954Z,18.47
2018-06-02T21:28:27.545Z,18.56
2018-06-02T21:30:57.918Z,18.54
2018-06-02T21:33:27.562Z,18.47
2018-06-02T21:35:57.688Z,18.52
2018-06-02T21:38:27.498Z,18.59
2018-06-02T21:40:57.391Z,18.61
2018-06-02T21:43:26.962Z,18.55
2018-06-02T21:45:56.826Z,18.44
2018-06-02T21:48:26.500Z,18.37
2018-06-02T21:50:56.749Z,18.27
2018-06-02T21:53:26.268Z,18.17
2018-06-02T21:55:56.547Z,18.00
2018-06-02T21:58:26.187Z,17.96
2018-06-02T22:00:56.669Z,17.88
2018-06-02T22:03:26.061Z,17.79
2018-06-02T22:05:55.739Z,17.69
2018-06-02T22:08:25.244Z,17.75
2018-06-02T22:10:54.929Z,17.68
2018-06-02T22:13:24.799Z,17.67
2018-06-02T22:15:54.326Z,17.63
2018-06-02T22:18:24.089Z,17.54
2018-06-02T22:20:53.829Z,17.53
2018-06-02T22:23:23.937Z,17.51
2018-06-02T22:25:53.641Z,17.50
2018-06-02T22:28:23.248Z,17.49
2018-06-02T22:30:52.955Z,17.40
2018-06-02T22:33:22.120Z,17.23
2018-06-02T22:35:51.866Z,17.18
2018-06-02T22:38:21.739Z,17.17
2018-06-02T22:40:51.153Z,17.15
2018-06-02T22:43:20.639Z,17.10
2018-06-02T22:45:50.105Z,17.06
2018-06-02T22:48:19.558Z,16.92
2018-06-02T22:50:49.193Z,16.92
2018-06-02T22:53:18.809Z,16.96
2018-06-02T22:55:48.633Z,16.98
2018-06-02T22:58:18.363Z,17.04
2018-06-02T23:00:48.466Z,17.09
2018-06-02T23:03:18.196Z,16.96
2018-06-02T23:05:47.757Z,17.06
2018-06-02T23:08:17.638Z,17.10
2018-06-02T23:10:47.245Z,17.06
2018-06-02T23:13:16.781Z,17.11
2018-06-02T23:15:46.489Z,17.13
2018-06-02T23:18:16.133Z,17.02
2018-06-02T23:20:45.992Z,16.96
2018-06-02T23:23:15.730Z,16.91
2018-06-02T23:25:45.328Z,16.92
2018-06-02T23:28:14.688Z,17.04
2018-06-02T23:30:44.420Z,17.09
2018-06-02T23:33:14.133Z,17.08
2018-06-02T23:35:43.625Z,17.02
2018-06-02T23:38:13.351Z,16.95
2018-06-02T23:40:42.820Z,16.97
2018-06-02T23:43:12.421Z,16.97
2018-06-02T23:45:42.009Z,17.01
2018-06-02T23:48:11.597Z,17.01
2018-06-02T23:50:40.895Z,17.04
2018-06-02T23:53:10.604Z,17.11
2018-06-02T23:55:40.196Z,17.13
2018-06-02T23:58:09.824Z,17.10
